createdAt,value
2023-09-13T00:00:13.741Z,1.00
2023-09-13T00:02:42.184Z,1.20
2023-09-13T00:05:10.102Z,1.93
2023-09-13T00:07:37.402Z,1.87
2023-09-13T00:10:04.683Z,1.57
2023-09-13T00:12:31.582Z,1.80
2023-09-13T00:14:58.464Z,1.53
2023-09-13T00:17:25.812Z,1.63
2023-09-13T00:19:52.612Z,1.80
2023-09-13T00:22:19.474Z,1.70
2023-09-13T00:24:46.561Z,1.70
2023-09-13T00:27:13.523Z,1.30
2023-09-13T00:29:40.421Z,1.50
2023-09-13T00:32:07.411Z,1.40
2023-09-13T00:34:34.409Z,1.40
2023-09-13T00:37:01.272Z,1.40
2023-09-13T00:39:28.158Z,1.50
2023-09-13T00:41:57.602Z,1.47
2023-09-13T00:44:24.683Z,1.63
2023-09-13T00:46:51.678Z,1.80
2023-09-13T00:49:18.637Z,1.83
2023-09-13T00:51:45.750Z,2.10
2023-09-13T00:54:13.021Z,1.50
2023-09-13T00:56:41.228Z,1.87
2023-09-13T00:59:10.666Z,2.20
2023-09-13T01:01:37.737Z,1.43
2023-09-13T01:04:05.154Z,1.73
2023-09-13T01:06:32.993Z,1.77
2023-09-13T01:09:00.326Z,1.70
2023-09-13T01:11:27.866Z,1.70
2023-09-13T01:13:54.682Z,1.60
2023-09-13T01:16:30.849Z,1.50
2023-09-13T01:19:13.320Z,1.40
2023-09-13T01:21:58.859Z,1.67
2023-09-13T01:24:28.713Z,1.60
2023-09-13T01:27:31.411Z,1.87
2023-09-13T01:30:01.004Z,2.00
2023-09-13T01:32:27.858Z,1.30
2023-09-13T01:34:54.800Z,1.60
2023-09-13T01:37:21.747Z,1.40
2023-09-13T01:39:48.692Z,1.67
2023-09-13T01:42:16.272Z,1.87
2023-09-13T01:44:44.433Z,1.67
2023-09-13T01:47:12.248Z,1.47
2023-09-13T01:49:39.883Z,1.53
2023-09-13T01:52:07.276Z,1.27
2023-09-13T01:54:35.243Z,1.30
2023-09-13T01:57:02.511Z,1.20
2023-09-13T01:59:29.568Z,1.20
2023-09-13T02:01:56.556Z,1.30
2023-09-13T02:04:23.545Z,1.47
2023-09-13T02:06:50.501Z,1.60
2023-09-13T02:09:17.828Z,1.20
2023-09-13T02:11:44.650Z,1.50
2023-09-13T02:14:11.541Z,1.40
2023-09-13T02:16:38.510Z,1.60
2023-09-13T02:19:05.568Z,1.20
2023-09-13T02:21:32.794Z,1.73
2023-09-13T02:23:59.645Z,1.63
2023-09-13T02:26:26.871Z,1.37
2023-09-13T02:28:54.623Z,1.70
2023-09-13T02:31:29.067Z,1.67
2023-09-13T02:33:56.622Z,1.87
2023-09-13T02:36:23.671Z,1.97
2023-09-13T02:38:51.394Z,1.30
2023-09-13T02:41:18.275Z,1.47
2023-09-13T02:43:45.511Z,1.90
2023-09-13T02:46:12.698Z,1.93
2023-09-13T02:48:40.301Z,1.67
2023-09-13T02:51:15.765Z,2.40
2023-09-13T02:53:43.327Z,1.77
2023-09-13T02:56:10.670Z,3.10
2023-09-13T02:58:38.618Z,2.73
2023-09-13T03:01:10.692Z,2.50
2023-09-13T03:03:37.782Z,3.00
2023-09-13T03:06:14.528Z,2.90
2023-09-13T03:08:41.525Z,3.17
2023-09-13T03:11:18.035Z,2.80
2023-09-13T03:13:45.731Z,2.77
2023-09-13T03:16:13.726Z,2.90
2023-09-13T03:18:41.048Z,2.70
2023-09-13T03:21:09.527Z,2.90
2023-09-13T03:23:42.352Z,2.90
2023-09-13T03:26:17.231Z,2.40
2023-09-13T03:28:45.742Z,2.70
2023-09-13T03:31:14.978Z,2.37
2023-09-13T03:33:42.550Z,2.80
2023-09-13T03:36:13.800Z,2.70
2023-09-13T03:38:42.258Z,2.40
2023-09-13T03:41:10.865Z,2.33
2023-09-13T03:43:37.786Z,2.33
2023-09-13T03:46:06.076Z,2.30
2023-09-13T03:48:34.312Z,2.70
2023-09-13T03:51:01.442Z,2.30
2023-09-13T03:53:28.300Z,1.93
2023-09-13T03:55:55.678Z,1.97
2023-09-13T03:58:23.490Z,2.50
2023-09-13T04:00:50.573Z,3.23
2023-09-13T04:03:18.009Z,3.93
2023-09-13T04:05:45.165Z,2.23
2023-09-13T04:08:12.397Z,1.67
2023-09-13T04:10:39.386Z,2.20
2023-09-13T04:13:06.745Z,2.33
2023-09-13T04:15:34.054Z,1.93
2023-09-13T04:18:01.018Z,1.83
2023-09-13T04:20:27.879Z,3.10
2023-09-13T04:22:54.709Z,1.87
2023-09-13T04:25:21.580Z,1.90
2023-09-13T04:27:49.265Z,1.67
2023-09-13T04:30:16.870Z,1.50
2023-09-13T04:32:44.053Z,1.37
2023-09-13T04:35:13.292Z,1.60
2023-09-13T04:37:40.632Z,1.90
2023-09-13T04:40:08.113Z,1.83
2023-09-13T04:42:42.571Z,2.90
2023-09-13T04:45:09.837Z,3.80
2023-09-13T04:47:37.600Z,3.77
2023-09-13T04:50:06.209Z,3.60
2023-09-13T04:52:33.473Z,4.30
2023-09-13T04:55:00.340Z,3.83
2023-09-13T04:57:27.266Z,3.20
2023-09-13T04:59:54.716Z,3.90
2023-09-13T05:02:22.247Z,2.97
2023-09-13T05:04:49.438Z,3.50
2023-09-13T05:07:16.413Z,3.27
2023-09-13T05:09:43.333Z,3.43
2023-09-13T05:12:10.356Z,4.53
2023-09-13T05:14:37.514Z,5.33
2023-09-13T05:17:04.938Z,5.27
2023-09-13T05:19:32.332Z,5.70
2023-09-13T05:21:59.174Z,5.70
2023-09-13T05:24:26.075Z,6.60
2023-09-13T05:26:52.913Z,6.73
2023-09-13T05:29:19.777Z,5.80
2023-09-13T05:31:46.828Z,5.70
2023-09-13T05:34:13.797Z,5.60
2023-09-13T05:36:42.493Z,6.63
2023-09-13T05:39:09.631Z,5.13
2023-09-13T05:41:38.580Z,7.37
2023-09-13T05:44:09.748Z,6.70
2023-09-13T05:46:36.772Z,6.30
2023-09-13T05:49:04.605Z,7.93
2023-09-13T05:51:31.924Z,7.67
2023-09-13T05:53:58.839Z,9.00
2023-09-13T05:56:27.687Z,6.67
2023-09-13T05:58:54.947Z,7.57
2023-09-13T06:01:23.937Z,7.37
2023-09-13T06:03:51.079Z,6.50
2023-09-13T06:06:18.138Z,6.50
2023-09-13T06:08:44.961Z,7.00
2023-09-13T06:11:11.893Z,6.80
2023-09-13T06:13:38.711Z,6.57
2023-09-13T06:16:05.672Z,6.70
2023-09-13T06:18:32.680Z,5.83
2023-09-13T06:21:00.377Z,4.97
2023-09-13T06:23:35.569Z,5.30
2023-09-13T06:26:03.438Z,5.87
2023-09-13T06:28:31.378Z,4.80
2023-09-13T06:31:04.045Z,5.03
2023-09-13T06:36:02.944Z,4.90
2023-09-13T06:38:31.416Z,4.67
2023-09-13T06:40:59.180Z,3.87
2023-09-13T06:46:04.639Z,4.30
2023-09-13T06:48:34.226Z,3.87
2023-09-13T06:51:47.232Z,3.40
2023-09-13T06:53:51.992Z,2.80
2023-09-13T06:56:21.248Z,2.90
2023-09-13T06:58:51.811Z,3.07
2023-09-13T07:03:54.803Z,2.97
2023-09-13T07:06:23.017Z,2.63
2023-09-13T07:08:50.317Z,3.73
2023-09-13T07:11:17.500Z,2.93
2023-09-13T07:13:44.391Z,2.67
2023-09-13T07:16:11.261Z,4.10
2023-09-13T07:18:38.220Z,2.70
2023-09-13T07:21:05.089Z,3.07
2023-09-13T07:23:31.971Z,3.30
2023-09-13T07:25:58.828Z,3.33
2023-09-13T07:28:26.072Z,3.87
2023-09-13T07:30:52.946Z,4.23
2023-09-13T07:33:19.780Z,3.10
2023-09-13T07:35:46.823Z,3.00
2023-09-13T07:38:13.710Z,4.27
2023-09-13T07:40:40.840Z,3.23
2023-09-13T07:43:08.651Z,4.07
2023-09-13T07:45:35.788Z,3.43
2023-09-13T07:48:04.127Z,3.77
2023-09-13T07:50:35.666Z,3.60
2023-09-13T07:53:05.810Z,3.90
2023-09-13T07:55:33.785Z,3.90
2023-09-13T07:58:00.898Z,4.30
2023-09-13T08:00:27.940Z,3.70
2023-09-13T08:02:54.880Z,3.57
2023-09-13T08:05:21.855Z,5.30
2023-09-13T08:07:49.068Z,4.80
2023-09-13T08:10:15.969Z,4.73
2023-09-13T08:12:42.978Z,5.00
2023-09-13T08:15:10.370Z,6.00
2023-09-13T08:17:37.566Z,5.60
2023-09-13T08:20:10.216Z,5.33
2023-09-13T08:22:40.247Z,5.27
2023-09-13T08:25:12.578Z,4.80
2023-09-13T08:27:39.846Z,5.60
2023-09-13T08:30:07.765Z,5.23
2023-09-13T08:32:34.644Z,4.20
2023-09-13T08:35:01.522Z,4.30
2023-09-13T08:37:31.140Z,4.90
2023-09-13T08:39:58.377Z,5.33
2023-09-13T08:42:26.531Z,5.40
2023-09-13T08:44:54.036Z,5.13
2023-09-13T08:47:23.527Z,5.10
2023-09-13T08:49:51.706Z,5.30
2023-09-13T08:52:18.797Z,5.60
2023-09-13T08:54:58.046Z,5.70
2023-09-13T08:57:26.994Z,5.93
2023-09-13T08:59:54.759Z,5.47
2023-09-13T09:02:25.194Z,5.37
2023-09-13T09:04:53.011Z,6.07
2023-09-13T09:07:21.164Z,6.00
2023-09-13T09:09:48.618Z,5.50
2023-09-13T09:12:20.324Z,6.17
2023-09-13T09:14:47.935Z,5.83
2023-09-13T09:17:15.956Z,6.07
2023-09-13T09:19:43.049Z,6.33
2023-09-13T09:22:10.045Z,6.47
2023-09-13T09:24:36.849Z,7.80
2023-09-13T09:27:04.160Z,6.43
2023-09-13T09:29:37.515Z,6.17
2023-09-13T09:32:08.811Z,7.40
2023-09-13T09:34:42.129Z,7.70
2023-09-13T09:37:10.033Z,7.57
2023-09-13T09:39:43.634Z,7.50
2023-09-13T09:42:17.052Z,6.83
2023-09-13T09:44:44.085Z,7.17
2023-09-13T09:47:14.838Z,7.57
2023-09-13T09:49:45.652Z,9.00
2023-09-13T09:52:12.625Z,8.63
2023-09-13T09:54:39.740Z,8.97
2023-09-13T09:57:07.097Z,9.13
2023-09-13T09:59:35.256Z,10.17
2023-09-13T10:02:04.612Z,7.87
2023-09-13T10:04:45.016Z,8.83
2023-09-13T10:07:11.958Z,9.10
2023-09-13T10:09:43.355Z,9.87
2023-09-13T10:12:11.214Z,11.20
2023-09-13T10:14:40.473Z,10.73
2023-09-13T10:17:08.177Z,12.70
2023-09-13T10:19:35.748Z,13.57
2023-09-13T10:22:03.739Z,13.40
2023-09-13T10:24:52.600Z,12.90
2023-09-13T10:27:22.399Z,13.67
2023-09-13T10:29:55.163Z,13.70
2023-09-13T10:32:24.867Z,13.30
2023-09-13T10:34:57.915Z,13.13
2023-09-13T10:37:40.956Z,15.93
2023-09-13T10:40:12.062Z,12.50
2023-09-13T10:42:41.200Z,14.53
2023-09-13T10:45:08.628Z,16.87
2023-09-13T10:47:38.069Z,15.00
2023-09-13T10:50:08.358Z,13.70
2023-09-13T10:52:36.632Z,16.40
2023-09-13T10:55:07.417Z,13.97
2023-09-13T10:57:35.851Z,15.30
2023-09-13T11:00:12.299Z,16.60
2023-09-13T11:02:44.353Z,15.00
2023-09-13T11:05:12.898Z,15.83
2023-09-13T11:07:41.684Z,16.30
2023-09-13T11:10:19.829Z,15.40
2023-09-13T11:12:50.676Z,16.97
2023-09-13T11:15:22.381Z,15.70
2023-09-13T11:17:50.100Z,15.73
2023-09-13T11:20:39.953Z,14.97
2023-09-13T11:26:01.093Z,16.53
2023-09-13T11:28:38.304Z,15.60
2023-09-13T11:31:10.702Z,15.30
2023-09-13T11:33:48.016Z,15.30
2023-09-13T11:36:18.787Z,15.07
2023-09-13T11:38:46.057Z,15.50
2023-09-13T11:41:20.890Z,16.50
2023-09-13T11:44:03.157Z,15.50
2023-09-13T11:46:31.734Z,14.20
2023-09-13T11:49:02.360Z,12.90
2023-09-13T11:54:19.025Z,13.60
2023-09-13T11:56:48.691Z,11.27
2023-09-13T11:59:31.483Z,11.60
2023-09-13T12:01:59.346Z,11.20
2023-09-13T12:06:59.343Z,10.27
2023-09-13T12:09:30.130Z,10.70
2023-09-13T12:12:01.935Z,11.10
2023-09-13T12:14:56.898Z,11.70
2023-09-13T12:17:20.459Z,10.50
2023-09-13T12:19:48.211Z,10.93
2023-09-13T12:22:16.021Z,10.50
2023-09-13T12:24:53.423Z,11.43
2023-09-13T12:27:20.734Z,9.53
2023-09-13T12:29:48.737Z,10.23
2023-09-13T12:32:17.104Z,10.60
2023-09-13T12:34:44.294Z,9.40
2023-09-13T12:37:11.270Z,9.70
2023-09-13T12:39:38.305Z,10.30
2023-09-13T12:42:11.545Z,10.27
2023-09-13T12:44:39.544Z,9.00
2023-09-13T12:47:06.910Z,8.87
2023-09-13T12:49:35.016Z,8.70
2023-09-13T12:52:02.047Z,8.17
2023-09-13T12:54:28.941Z,7.77
2023-09-13T12:57:01.581Z,7.63
2023-09-13T12:59:42.501Z,7.63
2023-09-13T13:02:19.469Z,8.07
2023-09-13T13:04:48.153Z,8.30
2023-09-13T13:07:25.885Z,8.37
2023-09-13T13:09:53.576Z,8.60
2023-09-13T13:12:20.824Z,8.97
2023-09-13T13:14:52.187Z,9.00
2023-09-13T13:17:19.206Z,9.27
2023-09-13T13:19:56.085Z,8.63
2023-09-13T13:22:25.527Z,7.73
2023-09-13T13:24:53.484Z,6.90
2023-09-13T13:27:20.955Z,6.77
2023-09-13T13:29:49.265Z,5.60
2023-09-13T13:32:16.561Z,6.07
2023-09-13T13:34:43.609Z,5.70
2023-09-13T13:37:10.571Z,7.07
2023-09-13T13:39:37.558Z,6.53
2023-09-13T13:42:04.844Z,6.50
2023-09-13T13:44:33.562Z,7.20
2023-09-13T13:47:00.526Z,5.40
2023-09-13T13:49:27.351Z,5.90
2023-09-13T13:51:54.170Z,5.93
2023-09-13T13:54:21.581Z,6.03
2023-09-13T13:56:48.853Z,6.03
2023-09-13T13:59:16.364Z,5.80
2023-09-13T14:01:43.558Z,6.13
2023-09-13T14:04:10.777Z,6.40
2023-09-13T14:06:38.068Z,5.40
2023-09-13T14:09:05.258Z,4.90
2023-09-13T14:11:32.203Z,4.80
2023-09-13T14:13:59.156Z,5.47
2023-09-13T14:16:26.054Z,5.87
2023-09-13T14:18:53.174Z,7.43
2023-09-13T14:21:20.183Z,7.67
2023-09-13T14:23:47.391Z,6.70
2023-09-13T14:26:14.550Z,6.03
2023-09-13T14:28:41.423Z,7.10
2023-09-13T14:31:13.663Z,5.80
2023-09-13T14:33:47.305Z,4.70
2023-09-13T14:36:15.707Z,6.40
2023-09-13T14:38:43.563Z,5.87
2023-09-13T14:41:10.566Z,6.23
2023-09-13T14:43:38.008Z,5.57
2023-09-13T14:46:05.409Z,5.00
2023-09-13T14:48:32.501Z,5.20
2023-09-13T14:50:59.798Z,5.60
2023-09-13T14:53:26.646Z,5.77
2023-09-13T14:55:57.713Z,5.37
2023-09-13T14:58:25.266Z,4.97
2023-09-13T15:00:52.227Z,5.27
2023-09-13T15:03:19.355Z,5.60
2023-09-13T15:05:46.386Z,5.17
2023-09-13T15:08:13.493Z,6.50
2023-09-13T15:10:40.881Z,5.90
2023-09-13T15:13:07.781Z,5.70
2023-09-13T15:15:35.223Z,4.80
2023-09-13T15:18:02.270Z,5.07
2023-09-13T15:20:29.717Z,4.40
2023-09-13T15:22:57.780Z,4.70
2023-09-13T15:25:24.678Z,3.80
2023-09-13T15:27:51.588Z,3.10
2023-09-13T15:30:18.634Z,2.80
2023-09-13T15:32:46.669Z,2.73
2023-09-13T15:35:14.732Z,2.60
2023-09-13T15:37:41.698Z,2.90
2023-09-13T15:40:09.769Z,2.80
2023-09-13T15:42:37.837Z,2.57
2023-09-13T15:45:05.207Z,2.87
2023-09-13T15:47:32.095Z,3.60
2023-09-13T15:49:59.724Z,3.67
2023-09-13T15:52:26.661Z,3.77
2023-09-13T15:54:55.980Z,3.53
2023-09-13T15:57:24.631Z,3.40
2023-09-13T15:59:51.847Z,3.37
2023-09-13T16:02:18.905Z,3.27
2023-09-13T16:04:45.954Z,3.30
2023-09-13T16:07:14.415Z,3.17
2023-09-13T16:09:41.378Z,3.47
2023-09-13T16:12:08.455Z,3.60
2023-09-13T16:14:35.978Z,2.80
2023-09-13T16:17:03.486Z,3.00
2023-09-13T16:19:30.644Z,2.57
2023-09-13T16:21:57.539Z,2.70
2023-09-13T16:24:24.500Z,2.23
2023-09-13T16:26:51.518Z,2.90
2023-09-13T16:29:18.435Z,2.70
2023-09-13T16:31:45.420Z,3.50
2023-09-13T16:34:12.326Z,3.13
2023-09-13T16:36:41.548Z,2.70
2023-09-13T16:39:08.983Z,3.83
2023-09-13T16:41:38.206Z,7.37
2023-09-13T16:44:05.527Z,2.90
2023-09-13T16:46:32.623Z,2.13
2023-09-13T16:48:59.778Z,2.63
2023-09-13T16:51:29.169Z,2.27
2023-09-13T16:53:56.748Z,2.20
2023-09-13T16:56:24.071Z,2.00
2023-09-13T16:58:51.021Z,1.43
2023-09-13T17:01:17.869Z,1.37
2023-09-13T17:03:44.975Z,2.00
2023-09-13T17:06:12.086Z,1.90
2023-09-13T17:08:38.891Z,1.87
2023-09-13T17:11:09.478Z,2.33
2023-09-13T17:13:36.626Z,1.90
2023-09-13T17:16:05.307Z,1.90
2023-09-13T17:18:34.667Z,2.40
2023-09-13T17:21:02.161Z,1.70
2023-09-13T17:23:30.486Z,2.70
2023-09-13T17:25:57.525Z,1.70
2023-09-13T17:28:24.985Z,1.87
2023-09-13T17:30:53.728Z,2.13
2023-09-13T17:33:20.795Z,1.80
2023-09-13T17:35:48.902Z,2.37
2023-09-13T17:38:18.269Z,1.90
2023-09-13T17:40:46.639Z,2.10
2023-09-13T17:43:13.861Z,1.70
2023-09-13T17:45:40.814Z,2.20
2023-09-13T17:48:07.758Z,2.10
2023-09-13T17:50:35.074Z,2.53
2023-09-13T17:53:07.399Z,2.40
2023-09-13T17:55:34.871Z,4.40
2023-09-13T17:58:02.026Z,3.07
2023-09-13T18:00:29.051Z,5.47
2023-09-13T18:02:56.676Z,2.00
2023-09-13T18:05:23.897Z,1.93
2023-09-13T18:07:57.769Z,2.00
2023-09-13T18:10:25.352Z,2.20
2023-09-13T18:12:52.224Z,1.90
2023-09-13T18:15:19.198Z,2.27
2023-09-13T18:17:54.276Z,2.10
2023-09-13T18:20:22.497Z,2.07
2023-09-13T18:22:49.461Z,2.00
2023-09-13T18:25:17.109Z,2.10
2023-09-13T18:27:44.208Z,2.03
2023-09-13T18:30:12.193Z,2.30
2023-09-13T18:32:39.136Z,2.27
2023-09-13T18:35:06.531Z,2.00
2023-09-13T18:37:35.055Z,2.13
2023-09-13T18:40:02.031Z,1.97
2023-09-13T18:42:32.958Z,2.47
2023-09-13T18:45:00.417Z,2.03
2023-09-13T18:47:27.531Z,2.10
2023-09-13T18:49:54.718Z,2.30
2023-09-13T18:52:21.675Z,2.60
2023-09-13T18:54:48.651Z,2.13
2023-09-13T18:57:17.167Z,1.90
2023-09-13T18:59:44.423Z,2.17
2023-09-13T19:02:11.600Z,2.20
2023-09-13T19:04:38.704Z,2.30
2023-09-13T19:07:10.235Z,2.10
2023-09-13T19:09:39.603Z,2.03
2023-09-13T19:12:07.664Z,2.50
2023-09-13T19:14:34.719Z,2.33
2023-09-13T19:17:01.846Z,2.20
2023-09-13T19:19:28.955Z,2.33
2023-09-13T19:21:55.829Z,2.40
2023-09-13T19:24:22.698Z,2.40
2023-09-13T19:26:49.540Z,2.43
2023-09-13T19:29:16.378Z,3.57
2023-09-13T19:31:43.861Z,3.50
2023-09-13T19:34:10.846Z,3.57
2023-09-13T19:36:37.721Z,2.70
2023-09-13T19:39:07.083Z,3.30
2023-09-13T19:41:34.483Z,2.50
2023-09-13T19:44:01.553Z,2.60
2023-09-13T19:46:28.534Z,3.00
2023-09-13T19:48:55.454Z,2.70
2023-09-13T19:51:22.937Z,2.00
2023-09-13T19:53:50.007Z,2.40
2023-09-13T19:56:16.988Z,2.70
2023-09-13T19:58:48.041Z,2.90
2023-09-13T20:01:16.252Z,2.87
2023-09-13T20:03:44.225Z,2.87
2023-09-13T20:06:19.113Z,2.97
2023-09-13T20:08:46.169Z,2.47
2023-09-13T20:11:16.434Z,3.27
2023-09-13T20:13:44.278Z,3.40
2023-09-13T20:16:11.433Z,3.47
2023-09-13T20:18:38.379Z,3.43
2023-09-13T20:21:05.889Z,2.93
2023-09-13T20:23:33.302Z,3.07
2023-09-13T20:26:00.373Z,2.93
2023-09-13T20:28:29.936Z,2.80
2023-09-13T20:30:57.291Z,2.73
2023-09-13T20:33:24.428Z,3.20
2023-09-13T20:35:51.952Z,3.03
2023-09-13T20:38:19.223Z,3.07
2023-09-13T20:40:46.297Z,3.40
2023-09-13T20:43:13.388Z,3.23
2023-09-13T20:45:40.751Z,5.97
2023-09-13T20:48:08.135Z,6.80
2023-09-13T20:50:35.171Z,5.37
2023-09-13T20:53:02.055Z,4.83
2023-09-13T20:55:31.112Z,8.70
2023-09-13T20:57:59.083Z,8.60
2023-09-13T21:00:26.036Z,10.53
2023-09-13T21:02:52.964Z,9.90
2023-09-13T21:05:19.965Z,13.90
2023-09-13T21:07:46.850Z,12.60
2023-09-13T21:10:14.164Z,11.40
2023-09-13T21:12:42.111Z,10.60
2023-09-13T21:15:09.677Z,10.97
2023-09-13T21:17:36.514Z,8.40
2023-09-13T21:20:03.578Z,7.73
2023-09-13T21:22:30.373Z,5.40
2023-09-13T21:24:57.293Z,4.57
2023-09-13T21:27:24.236Z,4.63
2023-09-13T21:29:51.125Z,4.67
2023-09-13T21:32:18.017Z,4.87
2023-09-13T21:35:00.822Z,3.83
2023-09-13T21:37:33.110Z,6.87
2023-09-13T21:40:01.882Z,7.40
2023-09-13T21:42:29.211Z,6.40
2023-09-13T21:44:56.637Z,5.70
2023-09-13T21:47:24.203Z,5.27
2023-09-13T21:49:51.377Z,4.10
2023-09-13T21:52:18.401Z,3.73
2023-09-13T21:54:49.410Z,3.83
2023-09-13T21:57:20.379Z,3.73
2023-09-13T21:59:47.545Z,4.10
2023-09-13T22:02:14.686Z,4.80
2023-09-13T22:04:41.733Z,6.90
2023-09-13T22:07:09.214Z,7.90
2023-09-13T22:09:37.324Z,6.57
2023-09-13T22:12:09.783Z,6.13
2023-09-13T22:14:36.634Z,5.23
2023-09-13T22:17:04.171Z,5.73
2023-09-13T22:19:31.107Z,4.33
2023-09-13T22:21:58.208Z,3.60
2023-09-13T22:24:25.996Z,3.73
2023-09-13T22:26:53.529Z,3.30
2023-09-13T22:29:21.207Z,3.40
2023-09-13T22:31:48.377Z,3.30
2023-09-13T22:34:15.270Z,3.50
2023-09-13T22:37:00.617Z,3.63
2023-09-13T22:39:27.180Z,3.40
2023-09-13T22:42:12.402Z,3.67
2023-09-13T22:44:57.517Z,3.67
2023-09-13T22:47:42.942Z,2.90
2023-09-13T22:50:28.270Z,2.83
2023-09-13T22:53:13.636Z,2.83
2023-09-13T22:55:59.008Z,3.10
2023-09-13T22:58:44.735Z,3.40
2023-09-13T23:01:30.445Z,3.47
2023-09-13T23:04:18.087Z,3.77
2023-09-13T23:07:05.408Z,3.73
2023-09-13T23:09:52.339Z,4.53
2023-09-13T23:12:39.256Z,4.03
2023-09-13T23:15:24.559Z,3.60
2023-09-13T23:18:09.621Z,3.87
2023-09-13T23:20:54.849Z,4.00
2023-09-13T23:23:40.162Z,2.90
2023-09-13T23:26:26.727Z,3.10
2023-09-13T23:29:13.749Z,3.13
2023-09-13T23:31:59.141Z,2.90
2023-09-13T23:34:44.212Z,3.10
2023-09-13T23:37:29.515Z,3.00
2023-09-13T23:40:18.410Z,3.20
2023-09-13T23:43:05.301Z,3.67
2023-09-13T23:45:53.046Z,3.07
2023-09-13T23:48:42.009Z,3.17
2023-09-13T23:51:28.952Z,2.90
2023-09-13T23:54:15.825Z,3.40
2023-09-13T23:57:02.717Z,3.50
2023-09-13T23:59:51.678Z,3.40
